Stations météo

réclame
Mon MeteoGroup
Sint Katelijne-Waver, Belgique (6439): Température de l'air & dewpoint: 12.02.2019 01:00:00 - 18.02.2019 01:00:00 (CET)Sint Katelijne-Waver, Belgique (6439): Vitesse du vent & gusts: 12.02.2019 01:00:00 - 18.02.2019 01:00:00 (CET)Sint Katelijne-Waver, Belgique (6439): Direction du vent: 12.02.2019 01:00:00 - 18.02.2019 01:00:00 (CET)Sint Katelijne-Waver, Belgique (6439): reduced air pressure: 12.02.2019 01:00:00 - 18.02.2019 01:00:00 (CET)Sint Katelijne-Waver, Belgique (6439): Ensoleillement: 12.02.2019 01:00:00 - 18.02.2019 01:00:00 (CET)Sint Katelijne-Waver, Belgique (6439): Quantités de précipitations: 12.02.2019 01:00:00 - 18.02.2019 01:00:00 (CET)
Date & Time tt [°C] td [°C] ff [km/h] ff [knt] fx [km/h] fx [knt] dd ppp [hPa] sd [min] rr [mm]
18.02.2019 01:00:00 3,7 0,2 4 2 9 5 SSE 1019,6 0 0,0
18.02.2019 00:00:00 6,4 1,2 7 4 9 5 S 1019,6 0 0,0
17.02.2019 23:00:00 4,8 0,5 6 3 8 4 SSE 1019,7 0 0,0
17.02.2019 22:00:00 5,4 -0,1 4 2 6 3 SE 1019,9 0 0,0
17.02.2019 21:00:00 9,2 0,2 4 2 11 6 S 1019,5 0 0,0
17.02.2019 20:00:00 9,5 0,4 - - - - - 1019,2 0 0,0
17.02.2019 19:00:00 10,3 0,1 - - - - - 1019,2 0 0,0
17.02.2019 18:00:00 14,0 0,5 - - - - - 1018,7 35 0,0
17.02.2019 17:00:00 15,7 0,9 12 6 - - S 1018,5 50 -
17.02.2019 16:00:00 - - - - - - - - 50 -
17.02.2019 15:00:00 17,3 0,4 18 10 27 15 SSW 1019,2 60 0,0
17.02.2019 14:00:00 16,0 3,1 9 5 16 9 SSE 1019,5 60 0,0
17.02.2019 13:00:00 14,4 4,0 11 6 20 11 SSE 1020,3 60 0,0
17.02.2019 12:00:00 11,7 3,3 12 6 21 11 SSE 1020,6 60 0,0
17.02.2019 11:00:00 8,9 3,0 11 6 16 9 SSE 1020,9 60 0,0
17.02.2019 10:00:00 5,2 2,1 6 3 9 5 SE 1021,3 41 0,0
17.02.2019 09:00:00 3,0 0,7 6 3 9 5 ESE 1021,4 0 0,0
17.02.2019 08:00:00 2,5 0,7 5 3 10 5 SE 1021,5 0 0,0
17.02.2019 07:00:00 1,9 0,4 4 2 8 5 SE 1021,8 0 0,0
17.02.2019 06:00:00 1,2 -0,2 5 3 9 5 ESE 1022,3 0 0,0
17.02.2019 05:00:00 2,2 0,3 5 3 9 5 ESE 1022,6 0 0,0
17.02.2019 04:00:00 2,9 1,1 6 4 10 6 SE 1023,1 0 0,0
17.02.2019 03:00:00 0,4 -0,4 6 3 9 5 SE 1023,6 0 0,0
17.02.2019 02:00:00 0,7 0,0 4 2 6 3 S 1024,1 0 0,0
17.02.2019 01:00:00 0,7 -0,1 0 0 4 2 N 1024,4 0 0,0
17.02.2019 00:00:00 1,4 0,2 4 2 5 3 ESE 1024,8 0 0,0
16.02.2019 23:00:00 2,2 0,8 0 0 5 3 N 1024,9 0 0,0
16.02.2019 22:00:00 3,0 1,3 4 2 4 2 ESE 1025,1 0 0,0
16.02.2019 21:00:00 4,2 1,9 4 2 4 2 S 1024,9 0 0,0
16.02.2019 20:00:00 6,0 2,1 - - - - - 1025,0 0 0,0
16.02.2019 19:00:00 7,8 2,5 4 2 5 3 SE 1025,1 0 0,0
16.02.2019 18:00:00 12,2 2,7 4 2 12 6 SW 1025,0 25 0,0
16.02.2019 17:00:00 14,3 3,4 7 4 17 9 SW 1025,3 60 0,0
16.02.2019 16:00:00 14,5 3,7 11 6 22 12 SW 1025,6 60 0,0
16.02.2019 15:00:00 14,3 3,7 15 8 26 14 SW 1025,8 60 0,0
16.02.2019 14:00:00 13,7 4,9 10 5 20 11 S 1026,0 60 0,0
16.02.2019 13:00:00 12,2 4,1 12 6 22 12 SW 1026,7 60 0,0
16.02.2019 12:00:00 10,6 3,0 14 8 20 11 SW 1026,8 60 0,0
16.02.2019 11:00:00 9,5 2,7 13 7 22 12 SSW 1026,4 60 0,0
16.02.2019 10:00:00 5,1 3,2 4 2 6 4 SSW 1026,7 60 0,0
16.02.2019 09:00:00 -0,5 -1,1 6 3 8 5 SSE 1026,3 14 0,0
16.02.2019 08:00:00 -1,5 -2,2 0 0 4 2 - 1026,0 0 0,0
16.02.2019 07:00:00 -1,6 -2,4 4 2 4 2 ENE 1025,9 0 0,0
16.02.2019 06:00:00 -1,0 -1,7 0 0 4 2 - 1025,6 0 0,0
16.02.2019 05:00:00 -0,5 -1,6 0 0 5 3 - 1025,6 0 0,0
16.02.2019 04:00:00 -0,1 -1,2 4 2 6 3 SE 1025,7 0 0,0
16.02.2019 03:00:00 0,7 -0,6 0 0 4 2 N 1026,2 0 0,0
16.02.2019 02:00:00 1,9 -0,1 4 2 9 5 S 1026,7 0 0,0
16.02.2019 01:00:00 - - - - - - - - 0 -
16.02.2019 00:00:00 3,3 0,2 4 2 10 6 S 1026,8 0 0,0
15.02.2019 23:00:00 3,4 0,9 6 3 8 4 SSE 1026,7 0 0,0
15.02.2019 22:00:00 4,2 1,5 6 3 8 4 SSE 1026,8 0 0,0
15.02.2019 21:00:00 5,0 1,8 4 2 6 3 SE 1027,2 0 0,0
15.02.2019 20:00:00 6,4 2,0 4 2 7 4 SE 1027,4 0 0,0
15.02.2019 19:00:00 9,2 2,3 4 2 8 5 ESE 1027,6 0 0,0
15.02.2019 18:00:00 14,2 2,7 5 3 11 6 ESE 1027,6 52 0,0
15.02.2019 17:00:00 16,3 3,8 5 3 13 7 ESE 1027,8 60 0,0
15.02.2019 16:00:00 16,7 3,5 9 5 14 7 ESE 1028,4 60 0,0
15.02.2019 15:00:00 16,8 2,7 9 5 14 7 SE 1029,0 60 0,0
15.02.2019 14:00:00 16,2 2,0 8 5 14 8 SE 1030,0 60 0,0
15.02.2019 13:00:00 15,2 1,7 7 4 16 8 SSE 1030,7 60 0,0
15.02.2019 12:00:00 12,4 1,6 6 3 11 6 SE 1031,3 60 0,0
15.02.2019 11:00:00 9,1 1,1 6 4 11 6 SE 1031,5 60 0,0
15.02.2019 10:00:00 5,2 0,3 5 3 10 5 SE 1031,7 60 0,0
15.02.2019 09:00:00 0,5 -1,3 6 3 9 5 ESE 1032,1 13 0,0
15.02.2019 08:00:00 -1,9 -2,7 4 2 6 3 E 1032,0 0 0,0
15.02.2019 07:00:00 -1,8 -2,4 0 0 4 2 N 1032,0 0 0,0
15.02.2019 06:00:00 -1,6 -2,3 0 0 3 2 N 1032,1 0 0,0
15.02.2019 05:00:00 -1,4 -2,2 4 2 5 3 E 1032,1 0 0,0
15.02.2019 04:00:00 -1,1 -2,1 4 2 4 2 E 1032,5 0 0,0
15.02.2019 03:00:00 -0,7 -1,6 0 0 5 3 N 1032,7 0 0,0
15.02.2019 02:00:00 -0,2 -1,4 5 3 6 3 E 1033,1 0 0,0
15.02.2019 01:00:00 0,2 -0,8 0 0 4 2 N 1033,2 0 0,0
15.02.2019 00:00:00 0,8 -0,3 4 2 8 4 SE 1033,0 0 0,0
14.02.2019 23:00:00 1,4 -0,3 5 3 7 4 ESE 1033,1 0 0,0
14.02.2019 22:00:00 2,0 -0,1 - - - - - 1033,1 0 0,0
14.02.2019 21:00:00 3,1 0,2 - - - - - 1033,1 0 0,0
14.02.2019 20:00:00 4,7 0,4 4 2 6 3 ENE 1033,3 0 0,0
14.02.2019 19:00:00 8,0 0,0 4 2 9 5 ESE 1033,3 0 0,0
14.02.2019 18:00:00 11,7 -0,5 6 3 10 5 SE 1033,2 50 0,0
14.02.2019 17:00:00 13,7 0,0 7 4 15 8 ESE 1033,6 60 0,0
14.02.2019 16:00:00 13,8 0,3 9 5 18 10 ESE 1034,1 60 0,0
14.02.2019 15:00:00 12,4 1,8 - - - - - 1034,5 60 0,0
14.02.2019 14:00:00 12,1 1,6 6 3 15 8 ESE 1035,2 60 0,0
14.02.2019 13:00:00 10,5 2,1 - - - - - 1035,8 60 0,0
14.02.2019 12:00:00 9,3 2,4 5 3 - - SE 1036,3 40 -
14.02.2019 11:00:00 5,8 1,2 6 3 10 5 SE 1036,2 60 0,0
14.02.2019 10:00:00 2,6 0,2 - - - - - 1036,4 60 0,0
14.02.2019 09:00:00 -1,4 -1,9 - - - - - 1036,7 9 0,0
14.02.2019 08:00:00 -2,0 -2,5 - - - - - 1036,2 0 0,0
14.02.2019 07:00:00 -1,4 -1,9 - - - - - 1035,6 0 0,0
14.02.2019 06:00:00 -1,5 -2,0 - - - - - 1035,4 0 0,0
14.02.2019 05:00:00 -1,3 -1,8 4 2 5 3 E 1035,3 0 0,0
14.02.2019 04:00:00 -0,6 -1,1 5 3 7 4 S 1035,4 0 0,0
14.02.2019 03:00:00 -0,8 -1,3 4 2 5 3 E 1035,6 0 0,0
14.02.2019 02:00:00 -0,2 -0,8 0 0 5 3 N 1035,5 0 0,0
14.02.2019 01:00:00 -0,1 -0,7 - - - - - 1035,8 0 0,0
14.02.2019 00:00:00 0,7 -0,3 - - - - - 1035,6 0 0,0
13.02.2019 23:00:00 1,3 0,2 - - - - - 1035,8 0 0,0
13.02.2019 22:00:00 1,7 0,5 - - - - - 1035,8 0 0,0
13.02.2019 21:00:00 2,5 0,7 0 0 4 2 N 1035,9 0 0,0
13.02.2019 20:00:00 4,3 1,2 - - - - - 1036,1 0 0,0
13.02.2019 19:00:00 5,5 1,8 4 2 9 5 S 1035,9 0 0,0
13.02.2019 18:00:00 7,5 2,0 - - - - - 1035,7 37 0,0
13.02.2019 17:00:00 8,5 2,2 11 6 20 11 SW 1035,8 60 0,0
13.02.2019 16:00:00 8,7 1,7 11 6 20 11 SSW 1035,8 60 0,0
13.02.2019 15:00:00 8,3 1,8 11 6 20 11 SSW 1035,6 60 0,0
13.02.2019 14:00:00 7,9 1,6 10 6 16 9 SSW 1036,4 60 0,0
13.02.2019 13:00:00 6,9 1,3 - - - - - 1037,2 60 0,0
13.02.2019 12:00:00 6,1 0,8 14 8 23 12 SW 1037,1 60 0,0
13.02.2019 11:00:00 5,3 0,8 13 7 23 12 SW 1036,9 58 0,0
13.02.2019 10:00:00 4,3 0,6 14 7 21 12 SSW 1036,9 22 0,0
13.02.2019 09:00:00 3,1 0,3 - - - - - 1037,0 0 0,0
13.02.2019 08:00:00 2,6 0,4 11 6 17 9 SW 1036,4 0 0,0
13.02.2019 07:00:00 2,6 0,4 - - - - - 1036,3 0 0,0
13.02.2019 06:00:00 2,9 0,4 11 6 17 9 SW 1036,3 0 0,0
13.02.2019 05:00:00 3,6 0,7 10 5 20 11 SW 1036,3 0 0,0
13.02.2019 04:00:00 4,0 1,1 11 6 21 12 SSW 1036,4 0 0,0
13.02.2019 03:00:00 4,0 1,3 10 6 22 12 SSW 1036,4 0 0,0
13.02.2019 02:00:00 3,7 1,4 13 7 21 11 SSW 1036,7 0 0,0
13.02.2019 01:00:00 4,0 1,6 - - - - - 1036,7 0 0,0
13.02.2019 00:00:00 4,3 1,8 - - - - - 1036,3 0 0,0
12.02.2019 23:00:00 4,9 2,3 11 6 24 13 SW 1035,9 0 0,0
12.02.2019 22:00:00 5,6 2,8 - - - - - 1035,9 0 0,0
12.02.2019 21:00:00 6,1 2,6 11 6 24 13 SSW 1035,9 0 0,0
12.02.2019 20:00:00 6,6 2,9 - - - - - 1035,4 0 0,0
12.02.2019 19:00:00 6,4 3,0 - - - - - 1035,3 0 0,0
12.02.2019 18:00:00 7,3 3,2 10 5 19 10 SSW 1035,3 2 0,0
12.02.2019 17:00:00 7,9 3,4 11 6 24 13 SSW 1035,0 25 0,0
12.02.2019 16:00:00 8,6 3,1 14 7 23 13 SW 1035,0 60 0,0
12.02.2019 15:00:00 8,4 3,3 13 7 20 11 WSW 1034,8 46 0,0
12.02.2019 14:00:00 7,4 3,2 11 6 19 10 SW 1035,1 44 0,0
12.02.2019 13:00:00 5,8 3,1 12 6 19 11 SW 1035,5 20 0,0
12.02.2019 12:00:00 4,5 3,1 9 5 14 8 SW 1035,7 1 0,0
12.02.2019 11:00:00 3,2 2,7 9 5 13 7 SSW 1035,2 0 0,0
12.02.2019 10:00:00 1,9 1,4 6 4 12 6 SSW 1035,3 0 0,0
12.02.2019 09:00:00 0,6 0,1 4 2 10 5 S 1035,0 0 0,0
12.02.2019 08:00:00 0,0 -0,5 5 3 8 4 S 1034,1 0 0,0
12.02.2019 07:00:00 0,2 -0,3 - - - - - 1033,7 0 0,0
12.02.2019 06:00:00 1,0 0,5 4 2 8 4 SSW 1033,8 0 0,0
12.02.2019 05:00:00 1,0 0,5 5 3 9 5 SW 1033,9 0 0,0
12.02.2019 04:00:00 1,0 0,5 5 3 8 5 SW 1033,9 0 0,0
12.02.2019 03:00:00 1,0 0,5 5 3 8 4 WSW 1033,9 0 0,0
12.02.2019 02:00:00 0,6 0,0 4 2 7 4 WSW 1033,7 0 0,0
12.02.2019 01:00:00 1,2 0,7 - - - - - 1033,3 0 0,0

tt = Température de l'air
td = dewpoint
ff = Vitesse du vent
fx = gusts
dd = Direction du vent
ppp = reduced air pressure
sd = Ensoleillement
rr = Quantités de précipitations

stations d'obs. à proximité